Time;durP1;ratioP1;P1;durP2;ratioP2;P2;SDS_P1;SDS_P2;PMS_P1;PMS_P2;Temp;Humidity;BMP_temperature;BMP_pressure;BME280_temperature;BME280_humidity;BME280_pressure;Samples;Min_cycle;Max_cycle;Signal;HPM_P1;HPM_P2
2023/02/14 00:00:36;;;;;;;19.75;8.40;;;;;;;4.65;59.44;101488.84;5216518;27;20121;-87
2023/02/14 00:03:01;;;;;;;17.60;7.87;;;;;;;4.50;59.44;101489.41;5218792;27;20145;-87
2023/02/14 00:05:27;;;;;;;21.73;8.65;;;;;;;4.39;59.42;101496.03;5225599;27;20149;-87
2023/02/14 00:07:52;;;;;;;20.58;8.82;;;;;;;4.51;59.43;101493.75;5219390;27;20458;-87
2023/02/14 00:10:17;;;;;;;16.15;7.70;;;;;;;4.21;59.41;101491.34;5216743;27;20066;-88
2023/02/14 00:12:43;;;;;;;20.90;9.27;;;;;;;4.56;59.43;101476.63;5217507;27;20125;-88
2023/02/14 00:15:20;;;;;;;20.60;9.20;;;;;;;4.55;59.43;101492.97;5217639;27;20078;-88
2023/02/14 00:17:46;;;;;;;23.35;9.68;;;;;;;4.67;59.44;101489.72;5221189;27;20058;-88
2023/02/14 00:20:12;;;;;;;18.75;8.70;;;;;;;4.56;59.43;101484.37;5200206;27;20106;-88
2023/02/14 00:22:37;;;;;;;17.52;7.87;;;;;;;4.73;59.44;101490.75;5217903;27;20069;-88
2023/02/14 00:25:03;;;;;;;21.67;8.57;;;;;;;4.90;59.45;101486.75;5217086;27;20073;-86
2023/02/14 00:27:28;;;;;;;18.48;8.68;;;;;;;5.03;59.46;101480.13;5217339;27;20069;-86
2023/02/14 00:29:55;;;;;;;21.58;9.32;;;;;;;4.75;59.45;101483.91;5217081;27;20082;-88
2023/02/14 00:32:20;;;;;;;18.30;9.30;;;;;;;4.76;59.44;101487.34;5218131;27;20093;-87
2023/02/14 00:34:46;;;;;;;20.77;9.40;;;;;;;4.96;59.46;101483.41;5217635;27;20053;-88
2023/02/14 00:37:11;;;;;;;22.48;9.77;;;;;;;4.69;59.44;101483.75;5217810;27;20177;-87
2023/02/14 00:39:36;;;;;;;22.92;9.18;;;;;;;4.73;59.45;101479.53;5216835;27;20062;-86
2023/02/14 00:42:02;;;;;;;18.73;8.52;;;;;;;4.78;59.44;101483.09;5198445;27;20062;-85
2023/02/14 00:44:27;;;;;;;18.58;9.15;;;;;;;4.78;59.44;101481.37;5216897;27;20454;-85
2023/02/14 00:46:53;;;;;;;17.00;8.00;;;;;;;4.83;59.45;101478.88;5217030;27;20056;-86
2023/02/14 00:49:18;;;;;;;22.85;9.68;;;;;;;5.12;59.47;101477.69;5216198;27;20129;-88
2023/02/14 00:51:44;;;;;;;22.20;9.43;;;;;;;5.17;59.47;101473.47;5216786;27;20093;-86
2023/02/14 00:54:09;;;;;;;25.35;9.93;;;;;;;4.99;59.46;101486.09;5216228;27;21389;-86
2023/02/14 00:56:34;;;;;;;21.02;9.43;;;;;;;5.22;59.47;101489.06;5216828;27;20073;-86
2023/02/14 00:59:00;;;;;;;22.10;10.20;;;;;;;5.22;59.47;101489.06;5216429;27;20466;-86
2023/02/14 01:01:25;;;;;;;20.67;9.25;;;;;;;5.07;59.46;101489.66;5216758;27;20093;-86
2023/02/14 01:03:51;;;;;;;18.58;8.95;;;;;;;5.09;59.47;101482.81;5216402;27;20138;-86
2023/02/14 01:06:16;;;;;;;21.50;10.07;;;;;;;5.39;59.48;101469.56;5216829;27;20681;-85
2023/02/14 01:08:42;;;;;;;19.52;9.07;;;;;;;5.30;59.47;101473.72;5199333;27;20085;-86
2023/02/14 01:11:12;;;;;;;24.55;9.88;;;;;;;5.32;59.48;101475.47;5216811;27;20094;-86
2023/02/14 01:13:37;;;;;;;;;;;;;;;5.26;59.48;101471.91;5217085;27;20064;-86
2023/02/14 01:16:07;;;;;;;20.20;8.88;;;;;;;5.21;59.46;101464.97;5234258;27;19965;-85
2023/02/14 01:18:33;;;;;;;20.20;8.57;;;;;;;5.14;59.47;101457.94;5216267;27;20766;-87
2023/02/14 01:21:27;;;;;;;19.75;9.20;;;;;;;4.99;59.46;101460.28;5234596;27;20058;-86
2023/02/14 01:23:53;;;;;;;19.17;9.30;;;;;;;5.07;59.46;101461.28;5219493;27;20442;-86
2023/02/14 01:26:19;;;;;;;19.60;9.48;;;;;;;5.10;59.47;101455.28;5216647;27;20450;-86
2023/02/14 01:28:44;;;;;;;25.25;9.82;;;;;;;5.23;59.47;101450.37;5216594;27;20061;-85
2023/02/14 01:31:11;;;;;;;18.50;9.13;;;;;;;5.19;59.47;101451.13;5216548;27;20077;-84
2023/02/14 01:33:37;;;;;;;19.50;8.50;;;;;;;5.02;59.46;101460.31;5216526;27;20106;-86
2023/02/14 01:36:02;;;;;;;22.35;10.05;;;;;;;5.45;59.48;101451.59;5216415;27;20046;-85
2023/02/14 01:38:28;;;;;;;22.33;9.50;;;;;;;5.16;59.46;101442.47;5216412;27;20062;-85
2023/02/14 01:40:53;;;;;;;21.92;8.80;;;;;;;5.28;59.47;101431.50;5216253;27;20590;-85
2023/02/14 01:43:19;;;;;;;22.17;9.07;;;;;;;5.11;59.46;101438.97;5233137;27;20396;-85
2023/02/14 01:45:44;;;;;;;20.65;9.60;;;;;;;5.33;59.48;101446.22;5223254;27;20046;-85
2023/02/14 01:48:10;;;;;;;22.05;10.23;;;;;;;5.50;59.49;101442.19;5261083;27;20097;-85
2023/02/14 01:50:37;;;;;;;22.05;9.73;;;;;;;5.74;59.49;101440.84;5235769;27;20105;-85
2023/02/14 01:53:04;;;;;;;18.98;9.05;;;;;;;5.88;59.51;101439.31;5215544;27;20065;-85
2023/02/14 01:55:31;;;;;;;20.85;9.52;;;;;;;5.77;59.51;101433.13;5216227;27;20050;-85
2023/02/14 01:58:27;;;;;;;17.27;9.00;;;;;;;5.69;59.50;101437.31;5216642;27;20429;-85
2023/02/14 02:00:55;;;;;;;19.12;9.32;;;;;;;5.71;59.50;101438.22;5216736;27;20066;-85
2023/02/14 02:03:21;;;;;;;19.48;9.13;;;;;;;5.72;59.49;101435.66;5216510;27;20063;-85
2023/02/14 02:05:50;;;;;;;18.37;9.10;;;;;;;5.95;59.51;101430.84;5216040;27;20093;-85
2023/02/14 02:08:15;;;;;;;18.15;8.98;;;;;;;5.77;59.50;101433.13;5216071;27;20062;-85
2023/02/14 02:10:40;;;;;;;19.25;8.65;;;;;;;5.79;59.50;101428.84;5215146;27;20105;-84
2023/02/14 02:13:06;;;;;;;18.33;8.77;;;;;;;5.91;59.51;101430.75;5215547;27;20129;-83
2023/02/14 02:15:43;;;;;;;22.08;9.52;;;;;;;5.74;59.50;101433.09;5215937;27;20069;-84
2023/02/14 02:18:20;;;;;;;18.08;8.80;;;;;;;5.56;59.49;101436.25;5217134;27;20085;-85
2023/02/14 02:20:49;;;;;;;19.85;8.48;;;;;;;5.69;59.50;101421.81;5233886;27;20062;-84
2023/02/14 02:23:39;;;;;;;20.88;9.85;;;;;;;5.71;59.50;101421.00;5234886;27;20054;-84
2023/02/14 02:26:13;;;;;;;23.55;9.02;;;;;;;5.73;59.50;101416.72;5216108;27;20104;-84
2023/02/14 02:29:16;;;;;;;17.85;8.32;;;;;;;5.66;59.49;101407.13;5233460;27;20065;-83
2023/02/14 02:31:41;;;;;;;17.65;9.07;;;;;;;5.39;59.48;101405.00;5234602;27;20069;-85
2023/02/14 02:34:30;;;;;;;21.25;9.10;;;;;;;5.41;59.48;101405.88;5234561;27;20361;-85
2023/02/14 02:36:56;;;;;;;18.55;9.70;;;;;;;5.39;59.49;101401.53;5219431;27;20092;-83
2023/02/14 02:39:37;;;;;;;22.00;10.30;;;;;;;4.96;59.46;101408.56;5235084;27;20081;-86
2023/02/14 02:42:16;;;;;;;20.73;11.18;;;;;;;5.10;59.46;101412.28;5235419;27;20093;-85
2023/02/14 02:45:17;;;;;;;22.33;10.85;;;;;;;4.94;59.46;101421.47;5218499;27;20058;-85
2023/02/14 02:48:04;;;;;;;21.92;10.00;;;;;;;4.90;59.45;101413.66;5217661;27;20095;-86
2023/02/14 02:53:39;;;;;;;21.15;9.88;;;;;;;5.08;59.45;101416.53;5236849;27;20108;-86
2023/02/14 02:58:55;;;;;;;24.27;9.45;;;;;;;5.19;59.47;101411.56;5235429;27;20116;-85
2023/02/14 03:01:23;;;;;;;17.95;8.60;;;;;;;5.19;59.47;101411.56;5235401;27;20086;-85
2023/02/14 03:06:34;;;;;;;21.20;9.65;;;;;;;5.02;59.46;101402.69;5221112;27;20068;-85
2023/02/14 03:09:32;;;;;;;24.45;10.40;;;;;;;4.72;59.44;101409.00;5216780;27;20054;-84
2023/02/14 03:12:21;;;;;;;24.85;10.35;;;;;;;4.79;59.45;101404.84;5237895;27;20198;-85
2023/02/14 03:14:56;;;;;;;23.08;9.52;;;;;;;4.66;59.44;101403.75;5217672;27;20076;-86
2023/02/14 03:17:26;;;;;;;22.70;9.80;;;;;;;4.80;59.45;101406.59;5235107;27;20058;-85
2023/02/14 03:20:14;;;;;;;22.58;10.20;;;;;;;4.63;59.43;101408.84;5235071;27;20046;-84
2023/02/14 03:22:52;;;;;;;23.30;10.75;;;;;;;4.65;59.44;101407.16;5234596;27;20423;-84
2023/02/14 03:25:23;;;;;;;22.45;10.48;;;;;;;4.60;59.44;101403.66;5236020;27;20073;-84
2023/02/14 03:27:53;;;;;;;23.98;10.07;;;;;;;4.42;59.42;101416.19;5219304;27;20492;-84
2023/02/14 03:30:40;;;;;;;24.83;10.60;;;;;;;4.24;59.42;101402.06;5217312;27;20064;-85
2023/02/14 03:33:15;;;;;;;25.58;10.30;;;;;;;4.38;59.42;101409.22;5218789;27;20058;-87
2023/02/14 03:35:54;;;;;;;22.50;10.18;;;;;;;4.26;59.41;101404.72;5199981;27;20821;-86
2023/02/14 03:38:23;;;;;;;25.67;10.40;;;;;;;4.40;59.42;101402.38;5218285;27;20418;-86
2023/02/14 03:41:00;;;;;;;22.17;10.98;;;;;;;4.23;59.42;101408.06;5200513;27;20110;-86
2023/02/14 03:43:43;;;;;;;26.75;10.77;;;;;;;4.46;59.43;101411.09;5217369;27;20498;-86
2023/02/14 03:46:09;;;;;;;20.75;10.45;;;;;;;4.50;59.43;101402.63;5200101;27;20137;-86
2023/02/14 03:48:35;;;;;;;24.98;10.57;;;;;;;4.46;59.42;101405.09;5235684;27;20068;-85
2023/02/14 03:51:00;;;;;;;24.27;10.55;;;;;;;4.37;59.43;101410.06;5199450;27;20116;-86
2023/02/14 03:53:27;;;;;;;27.05;12.00;;;;;;;4.35;59.42;101412.63;5199683;27;20160;-86
2023/02/14 03:56:05;;;;;;;25.83;10.90;;;;;;;4.29;59.42;101412.50;5217405;27;20124;-86
2023/02/14 03:58:33;;;;;;;27.30;12.77;;;;;;;4.51;59.43;101409.50;5235241;27;20157;-85
2023/02/14 04:01:02;;;;;;;26.25;11.10;;;;;;;4.49;59.44;101415.44;5218170;27;20106;-86
2023/02/14 04:03:27;;;;;;;27.70;11.60;;;;;;;4.37;59.43;101416.09;5217974;27;20066;-86
2023/02/14 04:05:53;;;;;;;23.83;11.25;;;;;;;4.29;59.42;101412.50;5199843;27;20080;-86
2023/02/14 04:08:24;;;;;;;24.65;11.90;;;;;;;4.38;59.42;101410.09;5199252;27;21047;-86
2023/02/14 04:10:50;;;;;;;23.73;11.15;;;;;;;4.25;59.41;101408.09;5217586;27;20129;-84
2023/02/14 04:13:15;;;;;;;24.60;11.63;;;;;;;4.33;59.41;101404.00;5217128;27;20080;-86
2023/02/14 04:15:41;;;;;;;24.65;11.65;;;;;;;4.35;59.43;101410.03;5217003;27;20073;-85
2023/02/14 04:20:51;;;;;;;27.48;11.65;;;;;;;4.40;59.42;101399.81;5235090;27;20117;-84
2023/02/14 04:23:17;;;;;;;27.75;11.95;;;;;;;4.55;59.43;101403.56;5199099;27;20408;-85
2023/02/14 04:25:44;;;;;;;26.83;12.85;;;;;;;4.55;59.43;101394.97;5199173;27;20152;-84
2023/02/14 04:28:10;;;;;;;45.72;18.95;;;;;;;4.71;59.44;101388.34;5235151;27;20512;-85
2023/02/14 04:30:35;;;;;;;86.63;31.42;;;;;;;4.83;59.44;101391.16;5217282;27;20069;-85
2023/02/14 04:33:01;;;;;;;66.65;24.48;;;;;;;4.94;59.46;101381.88;5199012;27;20344;-84
2023/02/14 04:35:27;;;;;;;72.15;27.75;;;;;;;4.80;59.45;101385.97;5217360;27;20065;-86
2023/02/14 04:37:52;;;;;;;76.53;29.52;;;;;;;4.73;59.45;101392.72;5199511;27;20364;-86
2023/02/14 04:40:17;;;;;;;74.80;30.02;;;;;;;4.72;59.44;101390.97;5199045;27;26041;-85
2023/02/14 04:42:44;;;;;;;87.37;36.80;;;;;;;4.81;59.45;101404.03;5199808;27;20062;-86
2023/02/14 04:45:09;;;;;;;67.53;28.33;;;;;;;4.72;59.45;101408.16;5199583;27;20471;-85
2023/02/14 04:47:35;;;;;;;48.35;20.20;;;;;;;4.70;59.43;101405.53;5199737;27;20068;-86
2023/02/14 04:50:00;;;;;;;32.17;13.95;;;;;;;4.63;59.43;101403.69;5199347;27;20618;-86
2023/02/14 04:52:26;;;;;;;32.60;13.55;;;;;;;4.61;59.43;101406.25;5217451;27;20087;-86
2023/02/14 04:54:51;;;;;;;38.67;14.38;;;;;;;4.35;59.43;101399.72;5199602;27;20429;-86
2023/02/14 04:57:16;;;;;;;29.63;13.20;;;;;;;4.42;59.42;101403.28;5199998;27;20081;-86
2023/02/14 04:59:42;;;;;;;36.15;14.13;;;;;;;4.26;59.41;101402.13;5199788;27;20150;-85
2023/02/14 05:02:07;;;;;;;31.45;14.05;;;;;;;4.22;59.41;101403.75;5198880;27;20097;-85
2023/02/14 05:04:33;;;;;;;33.58;14.02;;;;;;;4.31;59.42;101398.81;5199189;27;20081;-86
2023/02/14 05:06:58;;;;;;;32.20;13.75;;;;;;;4.18;59.41;101390.78;5200665;27;22229;-85
2023/02/14 05:09:23;;;;;;;31.05;12.65;;;;;;;4.16;59.41;101389.87;5240007;27;20101;-85
2023/02/14 05:11:50;;;;;;;27.42;12.65;;;;;;;4.01;59.40;101400.72;5200743;27;20356;-84
2023/02/14 05:14:15;;;;;;;33.55;13.65;;;;;;;4.12;59.40;101404.41;5199459;27;20075;-84
2023/02/14 05:16:40;;;;;;;31.35;13.65;;;;;;;4.15;59.41;101406.19;5216150;27;23549;-85
2023/02/14 05:19:06;;;;;;;29.63;12.27;;;;;;;4.15;59.41;101401.03;5198703;27;20101;-86
2023/02/14 05:21:32;;;;;;;27.35;12.18;;;;;;;4.14;59.41;101404.44;5198687;27;20133;-85
2023/02/14 05:23:58;;;;;;;31.62;13.45;;;;;;;4.16;59.41;101403.63;5216977;27;20057;-85
2023/02/14 05:26:24;;;;;;;30.73;13.38;;;;;;;4.31;59.42;101400.50;5217117;27;20073;-87
2023/02/14 05:28:49;;;;;;;36.13;13.60;;;;;;;4.09;59.41;101401.78;5217438;27;20384;-87
2023/02/14 05:31:15;;;;;;;29.08;12.30;;;;;;;4.35;59.42;101394.56;5199134;27;20104;-86
2023/02/14 05:33:40;;;;;;;31.90;13.02;;;;;;;4.20;59.42;101397.69;5199127;27;20061;-87
2023/02/14 05:36:06;;;;;;;26.33;12.18;;;;;;;4.09;59.41;101408.66;5199676;27;20106;-88
2023/02/14 05:38:32;;;;;;;35.08;13.02;;;;;;;4.18;59.41;101399.37;5216994;27;20065;-87
2023/02/14 05:40:58;;;;;;;26.75;10.68;;;;;;;4.10;59.40;101398.38;5199858;27;20077;-87
2023/02/14 05:43:25;;;;;;;26.85;11.77;;;;;;;4.39;59.42;101398.06;5199444;27;20117;-87
2023/02/14 05:45:50;;;;;;;30.23;11.82;;;;;;;4.37;59.43;101397.19;5200006;27;20054;-87
2023/02/14 05:48:15;;;;;;;26.23;10.07;;;;;;;4.42;59.42;101403.28;5200012;27;20078;-88
2023/02/14 05:50:41;;;;;;;23.45;10.30;;;;;;;4.47;59.43;101397.38;5199390;27;20087;-87
2023/02/14 05:53:07;;;;;;;24.45;9.60;;;;;;;4.56;59.43;101407.00;5199657;27;20439;-88
2023/02/14 05:55:33;;;;;;;25.15;10.57;;;;;;;4.48;59.42;101408.56;5217345;27;20065;-87
2023/02/14 05:57:58;;;;;;;26.90;11.48;;;;;;;4.48;59.42;101412.00;5199168;27;20915;-87
2023/02/14 06:00:24;;;;;;;27.92;12.88;;;;;;;4.58;59.44;101411.34;5199075;27;20125;-87
2023/02/14 06:02:50;;;;;;;57.53;21.17;;;;;;;4.51;59.43;101408.62;5199262;27;20360;-87
2023/02/14 06:05:17;;;;;;;65.55;26.10;;;;;;;4.67;59.44;101408.06;5200089;27;20099;-87
2023/02/14 06:07:47;;;;;;;59.92;23.52;;;;;;;4.58;59.43;101413.94;5219810;27;20707;-87
2023/02/14 06:10:13;;;;;;;26.50;12.45;;;;;;;4.74;59.45;101415.09;5203020;27;20057;-87
2023/02/14 06:12:38;;;;;;;26.55;11.27;;;;;;;4.73;59.45;101410.78;5201906;27;20415;-87
2023/02/14 06:15:04;;;;;;;26.17;10.73;;;;;;;4.73;59.44;101408.19;5201461;27;20078;-87
2023/02/14 06:17:29;;;;;;;26.83;11.45;;;;;;;4.77;59.44;101412.56;5201515;27;20395;-88
2023/02/14 06:19:55;;;;;;;28.45;11.93;;;;;;;4.86;59.44;101417.00;5201265;27;20116;-87
2023/02/14 06:22:20;;;;;;;27.60;11.02;;;;;;;4.90;59.45;101418.81;5201092;27;20089;-87
2023/02/14 06:24:46;;;;;;;28.15;12.55;;;;;;;4.74;59.45;101422.84;5201566;27;20061;-88
2023/02/14 06:27:11;;;;;;;37.40;17.37;;;;;;;4.72;59.45;101427.06;5201965;27;20108;-88
2023/02/14 06:29:36;;;;;;;31.55;15.00;;;;;;;4.87;59.46;101431.66;5201892;27;20395;-87
2023/02/14 06:32:05;;;;;;;38.92;18.33;;;;;;;4.83;59.45;101425.56;5201869;27;20109;-88
2023/02/14 06:34:33;;;;;;;26.15;11.70;;;;;;;5.03;59.46;101425.06;5202037;27;20062;-87
2023/02/14 06:36:59;;;;;;;28.65;11.80;;;;;;;4.95;59.46;101427.50;5201976;27;20049;-88
2023/02/14 06:39:24;;;;;;;23.58;11.77;;;;;;;5.05;59.46;101441.44;5201392;27;20128;-87
2023/02/14 06:41:50;;;;;;;30.80;11.77;;;;;;;5.11;59.47;101426.91;5218911;27;20094;-88
2023/02/14 06:44:15;;;;;;;32.03;12.65;;;;;;;5.13;59.46;101437.28;5201413;27;20384;-87
2023/02/14 06:46:40;;;;;;;30.35;13.50;;;;;;;5.19;59.47;101438.22;5225981;27;20114;-87
2023/02/14 06:49:06;;;;;;;28.02;11.25;;;;;;;5.04;59.46;101442.28;5206497;27;20085;-88
2023/02/14 06:51:31;;;;;;;26.90;11.95;;;;;;;5.16;59.46;101445.06;5219592;27;20411;-87
2023/02/14 06:53:57;;;;;;;21.75;10.93;;;;;;;5.05;59.46;101444.03;5218935;27;20054;-87
2023/02/14 06:56:22;;;;;;;22.70;10.40;;;;;;;5.15;59.46;101453.66;5238431;27;20042;-88
2023/02/14 06:58:47;;;;;;;24.63;10.73;;;;;;;5.31;59.47;101447.03;5201104;27;20402;-87
2023/02/14 07:01:13;;;;;;;22.10;10.23;;;;;;;5.45;59.48;101443.84;5200518;27;20190;-87
2023/02/14 07:03:38;;;;;;;22.55;9.98;;;;;;;5.51;59.48;101449.09;5200839;27;20373;-87
2023/02/14 07:06:04;;;;;;;23.70;9.85;;;;;;;5.58;59.49;101454.34;5218536;27;20105;-87
2023/02/14 07:08:29;;;;;;;23.95;10.73;;;;;;;5.58;59.49;101447.47;5201326;27;20081;-85
2023/02/14 07:10:56;;;;;;;23.95;10.93;;;;;;;5.59;59.49;101448.34;5200947;27;20066;-86
2023/02/14 07:13:21;;;;;;;25.42;10.57;;;;;;;5.52;59.48;101442.22;5219486;27;20072;-87
2023/02/14 07:15:46;;;;;;;21.12;11.20;;;;;;;5.46;59.49;101443.00;5201572;27;20106;-87
2023/02/14 07:18:12;;;;;;;19.67;9.50;;;;;;;5.58;59.49;101444.03;5234633;27;20395;-83
2023/02/14 07:20:37;;;;;;;18.37;10.15;;;;;;;5.80;59.50;101446.97;5234751;27;20442;-86
2023/02/14 07:23:03;;;;;;;22.95;10.55;;;;;;;5.85;59.50;101444.44;5199458;27;20110;-86
2023/02/14 07:25:28;;;;;;;19.98;9.88;;;;;;;5.92;59.51;101438.56;5199780;27;20062;-86
2023/02/14 07:27:54;;;;;;;20.85;9.55;;;;;;;6.01;59.51;101442.97;5217211;27;20054;-86
2023/02/14 07:30:19;;;;;;;21.95;9.95;;;;;;;6.09;59.52;101442.22;5199329;27;20120;-85
2023/02/14 07:32:45;;;;;;;22.08;9.07;;;;;;;6.29;59.53;101450.25;5217298;27;20054;-86
2023/02/14 07:35:10;;;;;;;19.60;8.85;;;;;;;6.29;59.53;101447.66;5217661;27;20066;-85
2023/02/14 07:37:36;;;;;;;21.17;8.75;;;;;;;6.42;59.54;101454.72;5217243;27;20109;-86
2023/02/14 07:40:01;;;;;;;17.73;8.07;;;;;;;6.46;59.54;101460.81;5214797;27;20116;-85
2023/02/14 07:42:27;;;;;;;23.50;9.82;;;;;;;6.65;59.54;101452.41;5216253;27;20364;-86
2023/02/14 07:44:53;;;;;;;18.00;9.35;;;;;;;6.68;59.56;101451.56;5216394;27;20093;-85
2023/02/14 07:47:18;;;;;;;17.70;9.05;;;;;;;6.86;59.56;101453.47;5236408;27;20058;-85
2023/02/14 07:49:44;;;;;;;20.27;8.88;;;;;;;6.97;59.57;101457.03;5235394;27;20080;-83
2023/02/14 07:52:09;;;;;;;18.98;8.57;;;;;;;7.02;59.57;101452.78;5235212;27;20130;-86
2023/02/14 07:54:35;;;;;;;16.75;8.52;;;;;;;7.11;59.58;101454.59;5217394;27;20104;-86
2023/02/14 07:57:00;;;;;;;18.50;8.85;;;;;;;7.23;59.58;101457.28;5217042;27;20101;-86
2023/02/14 07:59:26;;;;;;;19.25;8.32;;;;;;;7.32;59.58;101458.22;5199602;27;20101;-85
2023/02/14 08:01:51;;;;;;;16.12;8.55;;;;;;;7.39;59.58;101457.44;5217288;27;20113;-87
2023/02/14 08:04:17;;;;;;;16.42;8.88;;;;;;;7.61;59.61;101453.28;5199822;27;20050;-86
2023/02/14 08:06:42;;;;;;;22.02;9.40;;;;;;;7.82;59.61;101456.91;5216297;27;22719;-87
2023/02/14 08:09:10;;;;;;;18.35;9.82;;;;;;;7.75;59.61;101450.78;5217049;27;20620;-86
2023/02/14 08:14:21;;;;;;;21.62;9.60;;;;;;;8.18;59.63;101446.72;5220498;27;20061;-87
2023/02/14 08:16:46;;;;;;;18.67;9.77;;;;;;;8.22;59.62;101447.59;5217349;27;20065;-88
2023/02/14 08:19:11;;;;;;;18.98;9.80;;;;;;;8.19;59.63;101447.59;5217636;27;20058;-88
2023/02/14 08:21:37;;;;;;;20.80;10.35;;;;;;;8.48;59.65;101450.34;5217134;27;20317;-87
2023/02/14 08:24:02;;;;;;;20.17;10.65;;;;;;;8.70;59.66;101444.34;5198788;27;22340;-88
2023/02/14 08:26:28;;;;;;;18.73;8.98;;;;;;;8.82;59.67;101447.00;5225885;27;20092;-88
2023/02/14 08:28:53;;;;;;;20.02;9.90;;;;;;;8.84;59.67;101441.81;5220324;27;20947;-87
2023/02/14 08:31:29;;;;;;;20.60;9.70;;;;;;;9.01;59.68;101436.66;5217035;27;20133;-89
2023/02/14 08:33:55;;;;;;;20.85;10.02;;;;;;;8.94;59.67;101440.94;5216741;27;20055;-88
2023/02/14 08:36:20;;;;;;;19.90;9.55;;;;;;;9.24;59.69;101440.13;5234625;27;20109;-87
2023/02/14 08:38:48;;;;;;;20.35;8.52;;;;;;;9.51;59.70;101444.47;5216650;27;20061;-88
2023/02/14 08:41:15;;;;;;;17.60;9.43;;;;;;;9.69;59.71;101441.81;5217610;27;20062;-88
2023/02/14 08:43:40;;;;;;;15.27;8.65;;;;;;;9.91;59.73;101436.56;5216542;27;20658;-88
2023/02/14 08:46:05;;;;;;;17.02;8.48;;;;;;;10.06;59.74;101444.34;5216664;27;20092;-88
2023/02/14 08:48:31;;;;;;;13.75;7.60;;;;;;;10.31;59.75;101445.16;5216164;27;20061;-88
2023/02/14 08:50:56;;;;;;;16.85;7.87;;;;;;;10.56;59.77;101436.38;5216552;27;20104;-88
2023/02/14 08:53:22;;;;;;;13.65;7.35;;;;;;;10.57;59.76;101434.63;5216101;27;20081;-88
2023/02/14 08:55:48;;;;;;;17.70;8.32;;;;;;;10.75;59.77;101432.81;5234212;27;20069;-87
2023/02/14 08:58:13;;;;;;;16.30;8.18;;;;;;;10.70;59.78;101438.91;5207805;27;20327;-88
2023/02/14 09:00:38;;;;;;;15.20;8.77;;;;;;;10.77;59.79;101436.25;5216636;27;20105;-87
2023/02/14 09:03:04;;;;;;;14.00;7.82;;;;;;;10.74;59.77;101436.28;5234312;27;20080;-87
2023/02/14 09:05:29;;;;;;;17.12;9.18;;;;;;;10.65;59.77;101438.94;5210211;27;20061;-87
2023/02/14 09:07:55;;;;;;;18.92;9.90;;;;;;;10.46;59.75;101447.72;5216450;27;20193;-87
2023/02/14 09:10:21;;;;;;;17.40;8.93;;;;;;;10.56;59.77;101446.78;5199221;27;20486;-88
2023/02/14 09:12:47;;;;;;;16.85;8.60;;;;;;;10.49;59.76;101444.22;5198829;27;20062;-88
2023/02/14 09:15:12;;;;;;;17.98;9.40;;;;;;;10.73;59.77;101444.09;5216455;27;20110;-87
2023/02/14 09:17:38;;;;;;;20.73;10.18;;;;;;;10.62;59.76;101446.75;5198928;27;20210;-87
2023/02/14 09:20:07;;;;;;;16.37;9.27;;;;;;;10.56;59.77;101446.78;5198606;27;20069;-87
2023/02/14 09:22:33;;;;;;;14.63;8.18;;;;;;;10.72;59.77;101453.66;5216375;27;20050;-87
2023/02/14 09:24:59;;;;;;;15.70;7.95;;;;;;;10.77;59.78;101451.03;5216445;27;20152;-88
2023/02/14 09:27:24;;;;;;;18.35;9.35;;;;;;;10.89;59.78;101450.09;5216419;27;20066;-88
2023/02/14 09:29:50;;;;;;;16.55;8.80;;;;;;;10.84;59.77;101457.91;5216448;27;20097;-88
2023/02/14 09:32:15;;;;;;;15.98;9.18;;;;;;;11.14;59.79;101454.28;5216276;27;20105;-88
2023/02/14 09:34:42;;;;;;;15.10;8.38;;;;;;;11.24;59.80;101448.09;5216369;27;20076;-87
2023/02/14 09:37:09;;;;;;;17.90;8.93;;;;;;;11.27;59.80;101449.81;5216955;27;20358;-88
2023/02/14 09:39:36;;;;;;;18.35;8.80;;;;;;;11.38;59.81;101446.25;5215928;27;20166;-88
2023/02/14 09:42:23;;;;;;;19.08;8.73;;;;;;;11.47;59.82;101444.44;5216439;27;20117;-87
2023/02/14 09:45:10;;;;;;;27.95;13.00;;;;;;;11.38;59.81;101453.22;5234178;27;20062;-88
2023/02/14 09:47:51;;;;;;;26.35;13.30;;;;;;;11.66;59.82;101452.09;5201751;27;20073;-88
2023/02/14 09:50:22;;;;;;;23.38;12.95;;;;;;;11.86;59.84;101457.16;5234379;27;20073;-88
2023/02/14 09:52:50;;;;;;;29.92;13.48;;;;;;;11.86;59.84;101457.16;5199458;27;20047;-88
2023/02/14 09:55:16;;;;;;;26.45;13.77;;;;;;;11.73;59.83;101452.03;5216725;27;20126;-88
2023/02/14 09:57:58;;;;;;;21.67;11.12;;;;;;;11.74;59.82;101454.63;5216373;27;20120;-88
2023/02/14 10:00:43;;;;;;;21.08;12.02;;;;;;;11.82;59.83;101454.56;5234124;27;20078;-88
2023/02/14 10:03:11;;;;;;;23.58;12.20;;;;;;;11.79;59.83;101452.88;5217228;27;20047;-88
2023/02/14 10:06:09;;;;;;;20.52;10.82;;;;;;;11.90;59.84;101451.03;5242149;27;20081;-88
2023/02/14 10:08:34;;;;;;;24.50;11.60;;;;;;;12.07;59.85;101448.25;5207550;27;20379;-88
2023/02/14 10:11:06;;;;;;;20.25;10.68;;;;;;;11.93;59.84;101453.59;5234110;27;20061;-88
2023/02/14 10:13:45;;;;;;;26.30;11.95;;;;;;;11.95;59.84;101451.84;5199023;27;20061;-88
2023/02/14 10:16:21;;;;;;;22.15;12.13;;;;;;;12.07;59.85;101457.81;5217258;27;20066;-88
2023/02/14 10:18:56;;;;;;;24.08;12.50;;;;;;;12.18;59.86;101448.97;5216416;27;20066;-88
2023/02/14 10:21:27;;;;;;;19.48;11.43;;;;;;;12.16;59.85;101442.91;5199131;27;20061;-88
2023/02/14 10:23:57;;;;;;;25.05;11.50;;;;;;;12.09;59.85;101445.62;5199031;27;20051;-88
2023/02/14 10:26:49;;;;;;;24.75;11.93;;;;;;;12.27;59.86;101445.38;5216397;27;20148;-88
2023/02/14 10:29:16;;;;;;;21.10;11.00;;;;;;;12.47;59.87;101439.91;5230076;27;20108;-88
2023/02/14 10:31:56;;;;;;;20.95;11.30;;;;;;;12.35;59.86;101440.94;5198657;27;20054;-88
2023/02/14 10:34:28;;;;;;;;;;;;;;;12.50;59.88;101432.91;5216179;27;20109;-88
2023/02/14 10:36:59;;;;;;;18.60;10.82;;;;;;;12.42;59.88;101434.75;5233852;27;19984;-88
2023/02/14 10:39:57;;;;;;;19.25;10.75;;;;;;;12.60;59.88;101431.03;5235179;27;20065;-88
2023/02/14 10:42:43;;;;;;;23.83;11.40;;;;;;;12.82;59.90;101429.00;5219008;27;20077;-88
2023/02/14 10:45:30;;;;;;;19.15;11.10;;;;;;;12.55;59.88;101425.88;5234107;27;20130;-88
2023/02/14 10:48:35;;;;;;;21.95;10.85;;;;;;;12.71;59.88;101428.28;5233886;27;20113;-88
2023/02/14 10:51:45;;;;;;;18.05;10.52;;;;;;;12.98;59.90;101429.63;5234153;27;20073;-87
2023/02/14 10:54:16;;;;;;;21.08;9.27;;;;;;;12.76;59.89;101423.84;5147152;27;20022;-88
2023/02/14 10:56:49;;;;;;;17.08;9.45;;;;;;;12.93;59.89;101421.84;5234820;27;20062;-88
2023/02/14 10:59:18;;;;;;;16.10;8.80;;;;;;;12.79;59.89;101423.81;5200239;27;20117;-88
2023/02/14 11:01:43;;;;;;;17.42;9.52;;;;;;;12.93;59.90;101411.41;5236320;27;20058;-88
2023/02/14 11:04:10;;;;;;;13.77;8.40;;;;;;;12.77;59.89;101409.87;5216772;27;20419;-88
2023/02/14 11:06:35;;;;;;;16.83;8.48;;;;;;;12.99;59.90;101416.53;5217319;27;20339;-88
2023/02/14 11:09:02;;;;;;;19.62;10.38;;;;;;;13.10;59.90;101421.59;5217017;27;20070;-87
2023/02/14 11:11:41;;;;;;;24.70;10.73;;;;;;;13.10;59.90;101419.00;5199562;27;20059;-88
2023/02/14 11:14:21;;;;;;;19.48;10.10;;;;;;;12.94;59.90;101420.09;5218756;27;20056;-88
2023/02/14 11:16:50;;;;;;;18.65;10.45;;;;;;;12.79;59.89;101429.06;5234742;27;20059;-88
2023/02/14 11:19:29;;;;;;;14.60;8.90;;;;;;;12.53;59.88;101421.53;5200114;27;20066;-88
2023/02/14 11:21:56;;;;;;;14.68;7.87;;;;;;;12.45;59.87;101419.03;5217585;27;20062;-88
2023/02/14 11:24:33;;;;;;;15.65;7.97;;;;;;;12.48;59.87;101423.34;5216724;27;20049;-88
2023/02/14 11:27:11;;;;;;;9.85;6.18;;;;;;;12.33;59.86;101413.13;5217352;27;20403;-88
2023/02/14 11:29:39;;;;;;;9.85;5.62;;;;;;;12.41;59.87;101413.88;5234584;27;20062;-88
2023/02/14 11:32:12;;;;;;;14.38;6.95;;;;;;;12.48;59.87;101413.78;5234690;27;20058;-88
2023/02/14 11:34:40;;;;;;;11.48;5.90;;;;;;;12.56;59.88;101406.72;5218025;27;20049;-88
2023/02/14 11:38:04;;;;;;;10.70;6.47;;;;;;;12.64;59.88;101408.34;5217198;27;20064;-88
2023/02/14 11:40:29;;;;;;;12.48;7.57;;;;;;;12.64;59.88;101409.22;5169994;27;20172;-88
2023/02/14 11:42:59;;;;;;;12.23;6.62;;;;;;;12.43;59.88;101409.50;5169962;27;20084;-88